createdAt,value
2018-09-30T00:01:24.689Z,7.50
2018-09-30T00:03:52.234Z,7.60
2018-09-30T00:06:19.758Z,7.60
2018-09-30T00:08:47.356Z,7.60
2018-09-30T00:11:14.882Z,7.70
2018-09-30T00:13:42.412Z,7.70
2018-09-30T00:16:09.963Z,7.70
2018-09-30T00:18:37.493Z,7.70
2018-09-30T00:21:05.042Z,7.70
2018-09-30T00:23:38.242Z,7.60
2018-09-30T00:26:11.933Z,7.40
2018-09-30T00:28:39.455Z,7.30
2018-09-30T00:31:07.005Z,7.10
2018-09-30T00:33:38.617Z,7.00
2018-09-30T00:36:06.241Z,6.90
2018-09-30T00:38:33.766Z,6.90
2018-09-30T00:41:01.311Z,6.80
2018-09-30T00:43:28.822Z,6.70
2018-09-30T00:45:56.380Z,6.60
2018-09-30T00:48:23.880Z,6.50
2018-09-30T00:50:51.424Z,6.40
2018-09-30T00:53:18.954Z,6.40
2018-09-30T00:55:46.470Z,6.30
2018-09-30T00:58:14.011Z,6.30
2018-09-30T01:00:41.616Z,6.30
2018-09-30T01:03:09.136Z,6.20
2018-09-30T01:05:36.680Z,6.20
2018-09-30T01:08:04.196Z,6.20
2018-09-30T01:10:31.728Z,6.20
2018-09-30T01:12:59.216Z,6.10
2018-09-30T01:15:26.788Z,6.10
2018-09-30T01:17:54.314Z,6.10
2018-09-30T01:20:21.879Z,6.00
2018-09-30T01:22:49.438Z,6.00
2018-09-30T01:25:16.964Z,6.00
2018-09-30T01:27:44.525Z,5.90
2018-09-30T01:30:12.090Z,5.90
2018-09-30T01:32:39.620Z,5.90
2018-09-30T01:35:07.229Z,5.80
2018-09-30T01:37:34.830Z,5.80
2018-09-30T01:40:02.371Z,5.80
2018-09-30T01:42:30.003Z,5.80
2018-09-30T01:44:57.503Z,5.70
2018-09-30T01:47:25.044Z,5.70
2018-09-30T01:49:52.548Z,5.70
2018-09-30T01:52:31.350Z,5.70
2018-09-30T01:54:58.904Z,5.70
2018-09-30T01:57:26.458Z,5.70
2018-09-30T01:59:53.976Z,5.60
2018-09-30T02:02:21.550Z,5.60
2018-09-30T02:04:49.079Z,5.60
2018-09-30T02:07:16.632Z,5.50
2018-09-30T02:09:44.192Z,5.50
2018-09-30T02:12:11.727Z,5.50
2018-09-30T02:14:39.285Z,5.50
2018-09-30T02:17:06.823Z,5.50
2018-09-30T02:19:34.324Z,5.40
2018-09-30T02:22:01.823Z,5.40
2018-09-30T02:24:29.352Z,5.40
2018-09-30T02:26:56.871Z,5.50
2018-09-30T02:29:24.422Z,5.50
2018-09-30T02:31:51.936Z,5.50
2018-09-30T02:34:19.458Z,5.40
2018-09-30T02:36:47.024Z,5.30
2018-09-30T02:39:14.561Z,5.30
2018-09-30T02:41:42.094Z,5.30
2018-09-30T02:44:09.805Z,5.30
2018-09-30T02:46:37.346Z,5.30
2018-09-30T02:49:04.965Z,5.20
2018-09-30T02:51:32.494Z,5.30
2018-09-30T02:54:00.014Z,5.20
2018-09-30T02:56:27.551Z,5.20
2018-09-30T02:58:55.070Z,5.10
2018-09-30T03:01:22.592Z,5.10
2018-09-30T03:03:50.151Z,5.10
2018-09-30T03:06:23.225Z,5.00
2018-09-30T03:08:56.393Z,5.00
2018-09-30T03:11:23.933Z,5.00
2018-09-30T03:13:51.448Z,4.90
2018-09-30T03:16:18.959Z,4.90
2018-09-30T03:18:46.520Z,4.90
2018-09-30T03:21:14.090Z,4.90
2018-09-30T03:23:41.603Z,4.80
2018-09-30T03:26:09.107Z,4.90
2018-09-30T03:28:36.686Z,4.90
2018-09-30T03:31:04.247Z,4.90
2018-09-30T03:33:31.912Z,4.90
2018-09-30T03:35:59.681Z,4.90
2018-09-30T03:38:27.188Z,4.90
2018-09-30T03:40:54.714Z,4.80
2018-09-30T03:43:22.199Z,4.80
2018-09-30T03:45:49.750Z,4.90
2018-09-30T03:48:17.324Z,4.90
2018-09-30T03:50:44.901Z,4.80
2018-09-30T03:53:12.431Z,4.70
2018-09-30T03:55:40.084Z,4.70
2018-09-30T03:58:07.603Z,4.70
2018-09-30T04:00:35.151Z,4.70
2018-09-30T04:03:02.694Z,4.70
2018-09-30T04:05:30.231Z,4.60
2018-09-30T04:07:58.192Z,4.60
2018-09-30T04:10:25.698Z,4.60
2018-09-30T04:12:53.231Z,4.60
2018-09-30T04:15:20.761Z,4.60
2018-09-30T04:17:48.317Z,4.50
2018-09-30T04:20:15.822Z,4.50
2018-09-30T04:22:43.325Z,4.50
2018-09-30T04:25:10.849Z,4.50
2018-09-30T04:27:38.377Z,4.50
2018-09-30T04:30:05.974Z,4.50
2018-09-30T04:32:33.517Z,4.50
2018-09-30T04:35:01.043Z,4.50
2018-09-30T04:37:28.579Z,4.60
2018-09-30T04:39:56.083Z,4.50
2018-09-30T04:42:23.577Z,4.60
2018-09-30T04:44:51.097Z,4.60
2018-09-30T04:47:18.633Z,4.60
2018-09-30T04:49:46.201Z,4.60
2018-09-30T04:52:13.717Z,4.60
2018-09-30T04:54:41.209Z,4.60
2018-09-30T04:57:08.750Z,4.60
2018-09-30T04:59:36.285Z,4.60
2018-09-30T05:02:03.830Z,4.50
2018-09-30T05:04:31.338Z,4.50
2018-09-30T05:06:58.867Z,4.50
2018-09-30T05:09:26.376Z,4.40
2018-09-30T05:11:53.905Z,4.40
2018-09-30T05:14:21.420Z,4.60
2018-09-30T05:16:48.930Z,5.00
2018-09-30T05:19:16.477Z,5.30
2018-09-30T05:21:44.003Z,5.80
2018-09-30T05:24:11.526Z,6.20
2018-09-30T05:26:39.038Z,6.40
2018-09-30T05:29:06.778Z,6.70
2018-09-30T05:31:34.334Z,6.80
2018-09-30T05:34:01.870Z,7.00
2018-09-30T05:36:29.360Z,7.10
2018-09-30T05:38:56.867Z,7.10
2018-09-30T05:41:24.402Z,7.10
2018-09-30T05:43:51.936Z,7.20
2018-09-30T05:46:19.518Z,7.20
2018-09-30T05:48:47.055Z,7.30
2018-09-30T05:51:14.590Z,7.60
2018-09-30T05:53:42.154Z,7.90
2018-09-30T05:56:09.686Z,8.20
2018-09-30T05:58:37.216Z,8.20
2018-09-30T06:01:04.926Z,8.40
2018-09-30T06:03:32.611Z,9.10
2018-09-30T06:06:00.166Z,9.50
2018-09-30T06:08:27.783Z,9.30
2018-09-30T06:10:55.332Z,9.10
2018-09-30T06:13:22.877Z,8.90
2018-09-30T06:15:50.433Z,8.50
2018-09-30T06:18:17.950Z,8.10
2018-09-30T06:20:45.521Z,7.80
2018-09-30T06:23:13.082Z,7.60
2018-09-30T06:25:40.599Z,7.50
2018-09-30T06:28:08.182Z,7.40
2018-09-30T06:30:35.719Z,7.40
2018-09-30T06:33:03.363Z,7.40
2018-09-30T06:35:30.907Z,7.40
2018-09-30T06:37:58.431Z,7.40
2018-09-30T06:40:26.019Z,7.40
2018-09-30T06:42:53.520Z,7.50
2018-09-30T06:45:21.119Z,7.50
2018-09-30T06:47:48.631Z,7.40
2018-09-30T06:50:16.157Z,7.40
2018-09-30T06:52:43.705Z,7.50
2018-09-30T06:55:11.254Z,7.50
2018-09-30T06:57:38.813Z,7.60
2018-09-30T07:00:06.444Z,7.60
2018-09-30T07:02:34.014Z,7.70
2018-09-30T07:05:01.615Z,7.70
2018-09-30T07:07:29.125Z,7.80
2018-09-30T07:09:56.690Z,7.80
2018-09-30T07:12:24.241Z,7.80
2018-09-30T07:14:51.808Z,7.90
2018-09-30T07:17:19.683Z,7.90
2018-09-30T07:19:47.237Z,8.00
2018-09-30T07:22:14.840Z,8.00
2018-09-30T07:24:42.334Z,8.30
2018-09-30T07:27:09.863Z,8.80
2018-09-30T07:29:37.387Z,9.10
2018-09-30T07:32:04.928Z,9.40
2018-09-30T07:34:32.484Z,9.60
2018-09-30T07:37:00.235Z,9.90
2018-09-30T07:39:27.829Z,10.10
2018-09-30T07:41:55.413Z,10.20
2018-09-30T07:44:23.040Z,10.30
2018-09-30T07:46:50.688Z,10.40
2018-09-30T07:49:18.175Z,10.50
2018-09-30T07:51:45.732Z,10.60
2018-09-30T07:54:13.262Z,10.50
2018-09-30T07:56:40.805Z,10.40
2018-09-30T07:59:08.501Z,10.20
2018-09-30T08:01:36.027Z,10.10
2018-09-30T08:04:03.671Z,10.00
2018-09-30T08:06:31.315Z,9.80
2018-09-30T08:08:59.021Z,9.80
2018-09-30T08:11:26.586Z,9.80
2018-09-30T08:13:54.166Z,9.80
2018-09-30T08:16:21.734Z,9.90
2018-09-30T08:18:49.266Z,10.00
2018-09-30T08:21:16.831Z,10.00
2018-09-30T08:23:44.410Z,10.10
2018-09-30T08:26:12.017Z,10.20
2018-09-30T08:28:39.516Z,10.20
2018-09-30T08:31:07.112Z,10.20
2018-09-30T08:33:34.691Z,10.30
2018-09-30T08:36:08.172Z,10.40
2018-09-30T08:38:36.394Z,10.50
2018-09-30T08:41:05.196Z,10.60
2018-09-30T08:43:33.975Z,10.70
2018-09-30T08:46:01.614Z,10.70
2018-09-30T08:48:29.178Z,10.80
2018-09-30T08:50:57.096Z,10.90
2018-09-30T08:53:25.055Z,11.00
2018-09-30T08:55:53.098Z,11.10
2018-09-30T08:58:20.620Z,11.20
2018-09-30T09:00:48.216Z,11.30
2018-09-30T09:03:15.825Z,11.40
2018-09-30T09:05:43.377Z,11.50
2018-09-30T09:08:10.964Z,11.60
2018-09-30T09:10:38.472Z,11.70
2018-09-30T09:13:06.106Z,11.80
2018-09-30T09:15:34.609Z,12.00
2018-09-30T09:18:02.181Z,12.10
2018-09-30T09:20:29.757Z,12.20
2018-09-30T09:22:57.333Z,12.40
2018-09-30T09:25:24.957Z,12.50
2018-09-30T09:27:52.550Z,12.60
2018-09-30T09:30:20.086Z,12.70
2018-09-30T09:32:47.662Z,12.80
2018-09-30T09:35:15.293Z,12.90
2018-09-30T09:37:42.753Z,13.00
2018-09-30T09:40:10.719Z,13.20
2018-09-30T09:42:38.458Z,13.40
2018-09-30T09:45:06.423Z,13.50
2018-09-30T09:47:33.977Z,13.70
2018-09-30T09:50:01.576Z,13.90
2018-09-30T09:52:29.166Z,14.00
2018-09-30T09:54:56.682Z,14.20
2018-09-30T09:57:24.286Z,14.30
2018-09-30T09:59:52.680Z,14.40
2018-09-30T10:02:20.501Z,14.60
2018-09-30T10:04:48.065Z,14.80
2018-09-30T10:07:15.626Z,14.90
2018-09-30T10:09:43.220Z,15.00
2018-09-30T10:12:10.881Z,15.10
2018-09-30T10:14:38.425Z,15.30
2018-09-30T10:17:06.133Z,15.40
2018-09-30T10:19:33.778Z,15.50
2018-09-30T10:22:01.379Z,15.80
2018-09-30T10:24:29.146Z,16.00
2018-09-30T10:26:56.730Z,16.20
2018-09-30T10:29:24.293Z,16.50
2018-09-30T10:31:51.863Z,16.90
2018-09-30T10:34:19.453Z,17.10
2018-09-30T10:36:47.021Z,17.30
2018-09-30T10:39:14.773Z,17.40
2018-09-30T10:41:42.136Z,17.60
2018-09-30T10:44:09.722Z,17.90
2018-09-30T10:46:37.358Z,18.10
2018-09-30T10:49:05.386Z,18.40
2018-09-30T10:51:32.976Z,18.60
2018-09-30T10:54:00.548Z,18.80
2018-09-30T10:56:28.157Z,19.00
2018-09-30T10:58:55.993Z,19.20
2018-09-30T11:01:23.585Z,19.40
2018-09-30T11:03:51.179Z,19.80
2018-09-30T11:06:18.778Z,20.10
2018-09-30T11:08:46.347Z,20.30
2018-09-30T11:11:13.900Z,20.50
2018-09-30T11:13:41.462Z,20.60
2018-09-30T11:16:09.044Z,20.70
2018-09-30T11:18:36.582Z,21.00
2018-09-30T11:21:05.266Z,21.30
2018-09-30T11:23:32.831Z,21.30
2018-09-30T11:26:00.491Z,21.50
2018-09-30T11:28:28.067Z,21.70
2018-09-30T11:30:55.638Z,21.90
2018-09-30T11:33:23.205Z,22.00
2018-09-30T11:35:50.799Z,22.10
2018-09-30T11:38:18.400Z,22.30
2018-09-30T11:40:45.982Z,22.40
2018-09-30T11:43:13.562Z,22.40
2018-09-30T11:45:41.139Z,22.50
2018-09-30T11:48:08.700Z,22.60
2018-09-30T11:50:36.257Z,22.50
2018-09-30T11:53:03.850Z,22.50
2018-09-30T11:55:31.385Z,22.50
2018-09-30T11:57:58.946Z,22.60
2018-09-30T12:00:26.545Z,22.80
2018-09-30T12:02:54.081Z,22.90
2018-09-30T12:05:21.658Z,23.00
2018-09-30T12:07:49.222Z,23.10
2018-09-30T12:10:16.809Z,23.20
2018-09-30T12:12:44.357Z,23.40
2018-09-30T12:15:11.941Z,23.60
2018-09-30T12:17:39.525Z,23.70
2018-09-30T12:20:07.147Z,23.60
2018-09-30T12:22:34.685Z,23.60
2018-09-30T12:25:02.255Z,23.70
2018-09-30T12:27:29.795Z,23.90
2018-09-30T12:29:57.383Z,24.00
2018-09-30T12:32:24.908Z,24.00
2018-09-30T12:34:52.448Z,24.00
2018-09-30T12:37:20.020Z,24.10
2018-09-30T12:39:47.639Z,24.20
2018-09-30T12:42:15.162Z,24.40
2018-09-30T12:44:42.688Z,24.40
2018-09-30T12:47:10.243Z,24.40
2018-09-30T12:49:37.808Z,24.60
2018-09-30T12:52:05.413Z,24.80
2018-09-30T12:54:32.918Z,24.80
2018-09-30T12:57:00.510Z,24.70
2018-09-30T12:59:28.080Z,24.70
2018-09-30T13:01:55.662Z,24.80
2018-09-30T13:04:23.219Z,24.80
2018-09-30T13:06:50.768Z,24.70
2018-09-30T13:09:18.324Z,24.50
2018-09-30T13:11:45.871Z,24.40
2018-09-30T13:14:13.444Z,24.50
2018-09-30T13:16:41.034Z,24.50
2018-09-30T13:19:08.588Z,24.70
2018-09-30T13:21:36.132Z,24.70
2018-09-30T13:24:03.708Z,24.80
2018-09-30T13:26:31.279Z,24.90
2018-09-30T13:28:58.860Z,25.10
2018-09-30T13:31:26.422Z,25.20
2018-09-30T13:33:53.990Z,25.20
2018-09-30T13:36:21.548Z,25.30
2018-09-30T13:38:49.103Z,25.40
2018-09-30T13:41:16.762Z,25.50
2018-09-30T13:43:44.253Z,25.60
2018-09-30T13:46:11.893Z,25.60
2018-09-30T13:48:39.435Z,25.50
2018-09-30T13:51:07.017Z,25.40
2018-09-30T13:53:34.553Z,25.40
2018-09-30T13:56:02.146Z,25.60
2018-09-30T13:58:29.794Z,25.70
2018-09-30T14:00:57.279Z,25.90
2018-09-30T14:03:24.885Z,26.10
2018-09-30T14:05:52.579Z,26.20
2018-09-30T14:08:20.142Z,26.30
2018-09-30T14:10:47.701Z,26.40
2018-09-30T14:13:15.237Z,26.30
2018-09-30T14:15:42.859Z,26.20
2018-09-30T14:18:10.402Z,26.10
2018-09-30T14:20:37.971Z,26.10
2018-09-30T14:23:05.535Z,26.20
2018-09-30T14:25:33.073Z,26.10
2018-09-30T14:28:00.591Z,26.10
2018-09-30T14:30:28.186Z,26.20
2018-09-30T14:32:55.767Z,26.40
2018-09-30T14:35:23.291Z,26.50
2018-09-30T14:37:50.877Z,26.50
2018-09-30T14:40:18.421Z,26.50
2018-09-30T14:42:46.001Z,26.50
2018-09-30T14:45:13.566Z,26.50
2018-09-30T14:47:41.109Z,26.60
2018-09-30T14:50:08.630Z,26.60
2018-09-30T14:52:36.192Z,26.60
2018-09-30T14:55:03.848Z,26.70
2018-09-30T14:57:31.385Z,26.70
2018-09-30T14:59:58.980Z,26.70
2018-09-30T15:02:26.493Z,26.60
2018-09-30T15:04:54.046Z,26.50
2018-09-30T15:07:21.823Z,26.50
2018-09-30T15:09:49.360Z,26.50
2018-09-30T15:12:16.967Z,26.50
2018-09-30T15:14:44.540Z,26.50
2018-09-30T15:17:12.209Z,26.50
2018-09-30T15:19:39.775Z,26.40
2018-09-30T15:22:07.379Z,26.40
2018-09-30T15:24:34.908Z,26.40
2018-09-30T15:27:02.437Z,26.30
2018-09-30T15:29:30.002Z,26.20
2018-09-30T15:31:57.564Z,26.10
2018-09-30T15:34:25.172Z,26.00
2018-09-30T15:36:52.722Z,25.80
2018-09-30T15:39:20.310Z,25.70
2018-09-30T15:41:47.911Z,25.40
2018-09-30T15:44:15.499Z,25.20
2018-09-30T15:46:43.105Z,25.00
2018-09-30T15:49:10.696Z,24.80
2018-09-30T15:51:38.269Z,24.70
2018-09-30T15:54:06.022Z,24.50
2018-09-30T15:56:33.620Z,24.30
2018-09-30T15:59:01.230Z,24.00
2018-09-30T16:01:28.829Z,23.50
2018-09-30T16:03:56.390Z,23.00
2018-09-30T16:06:24.252Z,22.60
2018-09-30T16:08:51.956Z,22.20
2018-09-30T16:11:19.538Z,21.80
2018-09-30T16:13:47.137Z,21.40
2018-09-30T16:16:14.747Z,21.00
2018-09-30T16:18:42.428Z,20.70
2018-09-30T16:21:10.072Z,20.40
2018-09-30T16:23:37.693Z,20.10
2018-09-30T16:26:05.340Z,19.90
2018-09-30T16:28:32.984Z,19.70
2018-09-30T16:31:00.541Z,19.50
2018-09-30T16:33:28.074Z,19.30
2018-09-30T16:35:55.672Z,19.20
2018-09-30T16:38:23.359Z,19.10
2018-09-30T16:40:50.997Z,18.90
2018-09-30T16:43:18.581Z,18.70
2018-09-30T16:45:46.224Z,18.60
2018-09-30T16:48:14.677Z,18.50
2018-09-30T16:50:42.326Z,18.30
2018-09-30T16:53:09.869Z,18.20
2018-09-30T16:55:37.517Z,18.10
2018-09-30T16:58:05.692Z,18.00
2018-09-30T17:05:28.491Z,17.50
2018-09-30T17:07:56.145Z,17.40
2018-09-30T17:12:51.293Z,17.10
2018-09-30T17:15:18.957Z,17.00
2018-09-30T17:17:46.613Z,16.80
2018-09-30T17:20:14.238Z,16.80
2018-09-30T17:22:41.887Z,16.60
2018-09-30T17:25:09.539Z,16.60
2018-09-30T17:27:37.267Z,16.40
2018-09-30T17:30:05.008Z,16.30
2018-09-30T17:32:33.219Z,16.20
2018-09-30T17:35:00.885Z,16.00
2018-09-30T17:37:28.537Z,15.80
2018-09-30T17:39:56.200Z,15.70
2018-09-30T17:42:23.840Z,15.60
2018-09-30T17:44:51.502Z,15.40
2018-09-30T17:47:19.205Z,15.30
2018-09-30T17:49:46.839Z,15.20
2018-09-30T17:52:15.143Z,15.10
2018-09-30T17:54:42.775Z,15.00
2018-09-30T17:57:10.429Z,14.80
2018-09-30T17:59:38.077Z,14.80
2018-09-30T18:02:05.891Z,14.70
2018-09-30T18:04:33.555Z,14.60
2018-09-30T18:07:01.282Z,14.50
2018-09-30T18:09:29.734Z,14.40
2018-09-30T18:11:58.349Z,14.30
2018-09-30T18:14:26.251Z,14.20
2018-09-30T18:16:54.046Z,14.20
2018-09-30T18:19:21.768Z,14.10
2018-09-30T18:21:49.473Z,14.00
2018-09-30T18:24:17.153Z,14.00
2018-09-30T18:26:44.817Z,13.90
2018-09-30T18:29:12.611Z,13.80
2018-09-30T18:31:40.400Z,13.80
2018-09-30T18:34:08.595Z,13.70
2018-09-30T18:36:36.284Z,13.60
2018-09-30T18:39:06.735Z,13.60
2018-09-30T18:41:34.452Z,13.50
2018-09-30T18:44:02.148Z,13.40
2018-09-30T18:46:29.827Z,13.40
2018-09-30T18:48:57.550Z,13.30
2018-09-30T18:51:25.292Z,13.30
2018-09-30T18:53:53.017Z,13.20
2018-09-30T18:56:20.759Z,13.20
2018-09-30T18:58:48.462Z,13.10
2018-09-30T19:01:16.167Z,13.10
2018-09-30T19:03:43.862Z,13.00
2018-09-30T19:06:11.549Z,13.00
2018-09-30T19:08:39.834Z,13.00
2018-09-30T19:11:07.594Z,12.90
2018-09-30T19:13:35.245Z,12.90
2018-09-30T19:16:03.284Z,12.80
2018-09-30T19:18:30.907Z,12.80
2018-09-30T19:20:58.708Z,12.80
2018-09-30T19:23:26.438Z,12.70
2018-09-30T19:25:54.375Z,12.70
2018-09-30T19:28:22.008Z,12.70
2018-09-30T19:30:49.717Z,12.70
2018-09-30T19:33:17.348Z,12.60
2018-09-30T19:35:45.252Z,12.60
2018-09-30T19:38:14.253Z,12.60
2018-09-30T19:40:41.994Z,12.50
2018-09-30T19:43:09.681Z,12.50
2018-09-30T19:45:37.407Z,12.40
2018-09-30T19:48:05.144Z,12.30
2018-09-30T19:50:32.807Z,12.30
2018-09-30T19:53:00.463Z,12.30
2018-09-30T19:55:29.159Z,12.20
2018-09-30T19:57:56.849Z,12.20
2018-09-30T20:00:24.528Z,12.20
2018-09-30T20:02:52.211Z,12.20
2018-09-30T20:05:19.894Z,12.20
2018-09-30T20:07:47.553Z,12.20
2018-09-30T20:10:15.170Z,12.10
2018-09-30T20:12:43.495Z,12.10
2018-09-30T20:15:11.163Z,12.10
2018-09-30T20:17:38.854Z,12.10
2018-09-30T20:20:07.301Z,12.00
2018-09-30T20:22:35.949Z,12.00
2018-09-30T20:25:03.698Z,11.90
2018-09-30T20:27:31.383Z,11.90
2018-09-30T20:29:59.020Z,11.80
2018-09-30T20:32:26.665Z,11.80
2018-09-30T20:34:54.341Z,11.70
2018-09-30T20:37:21.993Z,11.70
2018-09-30T20:39:49.629Z,11.70
2018-09-30T20:42:17.761Z,11.70
2018-09-30T20:44:45.370Z,11.70
2018-09-30T20:47:12.952Z,11.60
2018-09-30T20:49:40.546Z,11.60
2018-09-30T20:52:08.099Z,11.50
2018-09-30T20:54:35.707Z,11.50
2018-09-30T20:57:03.264Z,11.40
2018-09-30T20:59:30.853Z,11.40
2018-09-30T21:01:58.447Z,11.40
2018-09-30T21:04:26.008Z,11.40
2018-09-30T21:06:53.590Z,11.40
2018-09-30T21:09:21.893Z,11.40
2018-09-30T21:11:49.453Z,11.30
2018-09-30T21:14:17.061Z,11.30
2018-09-30T21:16:44.725Z,11.20
2018-09-30T21:19:12.320Z,11.20
2018-09-30T21:21:39.878Z,11.20
2018-09-30T21:24:07.443Z,11.20
2018-09-30T21:26:35.044Z,11.10
2018-09-30T21:29:02.682Z,11.10
2018-09-30T21:31:30.231Z,11.10
2018-09-30T21:33:57.795Z,11.10
2018-09-30T21:36:25.469Z,11.00
2018-09-30T21:38:53.229Z,11.00
2018-09-30T21:41:20.789Z,11.00
2018-09-30T21:43:48.350Z,11.00
2018-09-30T21:46:15.941Z,11.00
2018-09-30T21:48:43.575Z,11.00
2018-09-30T21:51:11.073Z,11.00
2018-09-30T21:53:38.637Z,11.00
2018-09-30T21:56:06.253Z,10.90
2018-09-30T21:58:33.789Z,10.90
2018-09-30T22:01:02.543Z,10.80
2018-09-30T22:03:30.241Z,10.80
2018-09-30T22:05:57.857Z,10.80
2018-09-30T22:08:25.519Z,10.80
2018-09-30T22:10:53.109Z,10.80
2018-09-30T22:13:20.667Z,10.90
2018-09-30T22:15:48.247Z,10.90
2018-09-30T22:18:15.793Z,10.90
2018-09-30T22:20:43.346Z,11.00
2018-09-30T22:23:11.047Z,11.00
2018-09-30T22:25:38.569Z,11.00
2018-09-30T22:28:06.274Z,11.00
2018-09-30T22:30:34.006Z,11.00
2018-09-30T22:33:01.773Z,11.00
2018-09-30T22:35:29.360Z,11.00
2018-09-30T22:37:56.932Z,11.00
2018-09-30T22:40:24.725Z,11.00
2018-09-30T22:42:52.240Z,11.00
2018-09-30T22:45:19.836Z,11.10
2018-09-30T22:47:47.357Z,11.00
2018-09-30T22:50:14.953Z,11.10
2018-09-30T22:52:42.526Z,11.00
2018-09-30T22:55:10.074Z,11.00
2018-09-30T22:57:37.626Z,11.00
2018-09-30T23:00:05.732Z,11.00
2018-09-30T23:02:33.312Z,11.00
2018-09-30T23:05:00.846Z,11.00
2018-09-30T23:07:28.428Z,11.00
2018-09-30T23:09:55.961Z,11.00
2018-09-30T23:12:23.547Z,11.00
2018-09-30T23:14:51.426Z,11.00
2018-09-30T23:17:19.090Z,10.90
2018-09-30T23:19:46.668Z,10.90
2018-09-30T23:22:14.174Z,10.80
2018-09-30T23:24:41.705Z,10.90
2018-09-30T23:27:09.257Z,10.90
2018-09-30T23:29:36.819Z,10.90
2018-09-30T23:32:04.383Z,10.90
2018-09-30T23:34:31.929Z,10.90
2018-09-30T23:36:59.487Z,10.90
2018-09-30T23:39:27.053Z,10.90
2018-09-30T23:41:54.608Z,10.90
2018-09-30T23:44:22.144Z,10.90
2018-09-30T23:46:49.649Z,10.90
2018-09-30T23:49:17.233Z,10.90
2018-09-30T23:51:44.818Z,10.90
2018-09-30T23:54:12.413Z,10.90
2018-09-30T23:56:39.933Z,11.00
2018-09-30T23:59:07.604Z,11.10
